Airport ICAO


17:48 UTC

15°C

Broken clouds


An affordable passengers' Moving Map for your aircraft. Made for the iPad and the iPhone
More information here

EGWU Northolt


Northolt UNITED KINGDOM   VFR


METAR EGWU 171650Z 03002KT 9999 FEW018 BKN033 15/13 Q1020 BLU TEMPO SCT018 WHT 0h58min

TAF EGWU 171629Z 1718/1812 02005KT 9999 FEW015 BKN030 PROB30 TEMPO 1718/1720 SCT015 PROB30 TEMPO 1802/1808 5000 BR SCT012 1h19min





NOTAMS

OPEN